createdAt,value
2019-03-30T00:03:47.847Z,4.50
2019-03-30T00:06:21.977Z,4.50
2019-03-30T00:08:59.363Z,4.40
2019-03-30T00:11:32.767Z,4.40
2019-03-30T00:14:08.751Z,4.40
2019-03-30T00:16:39.023Z,4.30
2019-03-30T00:19:13.058Z,4.30
2019-03-30T00:21:47.194Z,4.20
2019-03-30T00:24:22.401Z,4.20
2019-03-30T00:26:53.644Z,4.20
2019-03-30T00:29:29.433Z,4.10
2019-03-30T00:32:03.906Z,4.10
2019-03-30T00:34:43.347Z,4.10
2019-03-30T00:37:14.970Z,4.10
2019-03-30T00:39:48.087Z,4.00
2019-03-30T00:42:17.736Z,4.00
2019-03-30T00:44:54.370Z,4.00
2019-03-30T00:47:40.511Z,4.00
2019-03-30T00:50:11.555Z,4.00
2019-03-30T00:52:46.701Z,3.90
2019-03-30T00:55:24.664Z,3.90
2019-03-30T00:57:57.529Z,3.90
2019-03-30T01:00:34.896Z,3.90
2019-03-30T01:03:15.423Z,3.80
2019-03-30T01:05:51.615Z,3.70
2019-03-30T01:08:25.698Z,3.70
2019-03-30T01:10:58.273Z,3.60
2019-03-30T01:13:29.791Z,3.60
2019-03-30T01:15:59.383Z,3.60
2019-03-30T01:18:28.160Z,3.60
2019-03-30T01:21:00.021Z,3.50
2019-03-30T01:23:28.929Z,3.50
2019-03-30T01:25:57.978Z,3.40
2019-03-30T01:28:27.698Z,3.40
2019-03-30T01:30:58.231Z,3.40
2019-03-30T01:33:28.197Z,3.30
2019-03-30T01:36:00.181Z,3.30
2019-03-30T01:38:29.158Z,3.30
2019-03-30T01:41:04.066Z,3.30
2019-03-30T01:43:34.793Z,3.30
2019-03-30T01:46:06.734Z,3.20
2019-03-30T01:48:35.677Z,3.20
2019-03-30T01:51:09.710Z,3.20
2019-03-30T01:53:38.600Z,3.10
2019-03-30T01:56:07.412Z,3.10
2019-03-30T01:58:37.240Z,3.10
2019-03-30T02:01:07.511Z,3.00
2019-03-30T02:03:36.394Z,3.00
2019-03-30T02:06:06.398Z,3.00
2019-03-30T02:08:44.976Z,3.00
2019-03-30T02:11:13.736Z,2.90
2019-03-30T02:13:43.207Z,2.90
2019-03-30T02:16:12.128Z,2.90
2019-03-30T02:18:41.521Z,2.90
2019-03-30T02:21:11.644Z,2.90
2019-03-30T02:23:42.075Z,2.80
2019-03-30T02:26:11.968Z,2.80
2019-03-30T02:28:41.182Z,2.80
2019-03-30T02:31:11.956Z,2.80
2019-03-30T02:33:40.942Z,2.80
2019-03-30T02:36:09.984Z,2.70
2019-03-30T02:38:40.390Z,2.70
2019-03-30T02:41:10.001Z,2.70
2019-03-30T02:43:38.849Z,2.70
2019-03-30T02:46:09.297Z,2.70
2019-03-30T02:48:38.983Z,2.60
2019-03-30T02:51:08.725Z,2.60
2019-03-30T02:53:39.535Z,2.50
2019-03-30T02:56:08.807Z,2.50
2019-03-30T02:58:39.016Z,2.50
2019-03-30T03:01:08.381Z,2.50
2019-03-30T03:03:43.996Z,2.50
2019-03-30T03:06:11.927Z,2.40
2019-03-30T03:08:44.466Z,2.50
2019-03-30T03:11:13.274Z,2.40
2019-03-30T03:13:45.670Z,2.40
2019-03-30T03:16:17.406Z,2.40
2019-03-30T03:18:49.331Z,2.30
2019-03-30T03:21:18.339Z,2.30
2019-03-30T03:23:50.240Z,2.30
2019-03-30T03:26:19.864Z,2.30
2019-03-30T03:28:50.328Z,2.30
2019-03-30T03:31:20.471Z,2.20
2019-03-30T03:33:49.281Z,2.20
2019-03-30T03:36:19.060Z,2.20
2019-03-30T03:38:50.220Z,2.20
2019-03-30T07:12:56.821Z,12.60
2019-03-30T07:15:49.087Z,13.30
2019-03-30T07:18:19.298Z,14.40
2019-03-30T07:20:47.984Z,15.30
2019-03-30T07:23:16.632Z,15.60
2019-03-30T07:25:45.260Z,15.70
2019-03-30T07:28:13.812Z,15.70
2019-03-30T07:30:42.733Z,15.80
2019-03-30T07:33:11.353Z,15.90
2019-03-30T07:35:39.923Z,16.00
2019-03-30T07:38:08.871Z,16.20
2019-03-30T07:40:37.420Z,16.50
2019-03-30T07:43:06.024Z,17.00
2019-03-30T08:00:17.661Z,15.40
2019-03-30T08:02:46.240Z,16.00
2019-03-30T08:05:15.639Z,16.30
2019-03-30T08:07:45.048Z,16.60
2019-03-30T08:10:13.943Z,16.70
2019-03-30T08:12:42.567Z,16.80
2019-03-30T08:15:11.583Z,16.70
2019-03-30T08:17:40.226Z,17.00
2019-03-30T08:20:10.479Z,17.00
2019-03-30T08:22:39.307Z,17.40
2019-03-30T08:25:08.007Z,17.30
2019-03-30T08:27:36.655Z,17.20
2019-03-30T08:30:06.642Z,17.40
2019-03-30T08:32:35.196Z,17.30
2019-03-30T08:35:05.156Z,17.50
2019-03-30T08:37:33.782Z,17.90
2019-03-30T08:40:02.619Z,18.10
2019-03-30T08:42:31.209Z,18.20
2019-03-30T08:44:59.834Z,18.20
2019-03-30T08:47:28.499Z,18.10
2019-03-30T08:50:09.209Z,17.70
2019-03-30T08:52:38.131Z,17.20
2019-03-30T08:58:07.811Z,16.90
2019-03-30T09:00:50.516Z,17.00
2019-03-30T09:03:19.703Z,17.30
2019-03-30T09:06:05.053Z,17.00
2019-03-30T09:08:38.014Z,17.00
2019-03-30T09:14:41.251Z,16.70
2019-03-30T09:17:09.897Z,16.50
2019-03-30T09:19:38.711Z,17.00
2019-03-30T09:22:07.288Z,17.00
2019-03-30T09:24:35.831Z,17.40
2019-03-30T09:27:04.412Z,17.70
2019-03-30T09:29:32.975Z,18.40
2019-03-30T09:32:13.557Z,18.80
2019-03-30T09:34:31.785Z,18.80
2019-03-30T09:37:00.639Z,19.10
2019-03-30T09:39:29.250Z,19.30
2019-03-30T09:41:57.860Z,19.10
2019-03-30T09:44:26.379Z,19.10
2019-03-30T09:46:54.917Z,19.30
2019-03-30T09:49:23.419Z,19.30
2019-03-30T09:51:51.980Z,18.40
2019-03-30T09:54:23.955Z,18.10
2019-03-30T09:56:51.041Z,17.70
2019-03-30T09:59:19.589Z,17.70
2019-03-30T10:01:48.396Z,18.10
2019-03-30T10:04:16.998Z,18.70
2019-03-30T10:06:45.471Z,19.00
2019-03-30T10:09:14.019Z,19.20
2019-03-30T10:11:42.776Z,19.60
2019-03-30T10:14:11.626Z,19.80
2019-03-30T10:16:40.192Z,19.80
2019-03-30T10:19:08.777Z,20.00
2019-03-30T10:21:37.586Z,19.80
2019-03-30T10:24:06.231Z,19.50
2019-03-30T10:26:34.813Z,19.70
2019-03-30T10:29:03.430Z,19.70
2019-03-30T10:31:32.067Z,19.50
2019-03-30T10:34:00.673Z,19.50
2019-03-30T10:36:29.248Z,19.60
2019-03-30T10:38:57.824Z,19.50
2019-03-30T10:41:26.429Z,19.50
2019-03-30T10:43:55.075Z,19.20
2019-03-30T10:46:23.646Z,19.00
2019-03-30T10:48:52.208Z,19.20
2019-03-30T10:51:20.787Z,19.30
2019-03-30T10:53:49.349Z,19.30
2019-03-30T10:56:18.300Z,19.10
2019-03-30T10:58:46.870Z,19.20
2019-03-30T11:01:15.536Z,18.90
2019-03-30T11:03:44.089Z,18.70
2019-03-30T11:06:12.644Z,18.50
2019-03-30T11:08:41.431Z,18.60
2019-03-30T11:11:09.990Z,18.70
2019-03-30T11:13:38.580Z,18.60
2019-03-30T11:16:07.166Z,18.80
2019-03-30T11:18:35.737Z,19.10
2019-03-30T11:21:04.394Z,18.90
2019-03-30T11:23:32.946Z,19.00
2019-03-30T11:26:01.640Z,19.20
2019-03-30T11:28:30.206Z,19.40
2019-03-30T11:30:58.761Z,19.40
2019-03-30T11:33:27.344Z,19.40
2019-03-30T11:35:55.890Z,19.50
2019-03-30T11:38:24.454Z,19.60
2019-03-30T11:40:53.037Z,19.80
2019-03-30T11:43:21.690Z,19.70
2019-03-30T11:45:50.274Z,19.60
2019-03-30T11:48:20.414Z,19.60
2019-03-30T11:50:49.080Z,19.40
2019-03-30T11:53:17.639Z,19.40
2019-03-30T11:55:46.297Z,19.50
2019-03-30T11:58:14.972Z,19.60
2019-03-30T12:00:44.390Z,19.60
2019-03-30T12:03:13.000Z,19.60
2019-03-30T12:05:41.592Z,19.50
2019-03-30T12:08:10.220Z,19.60
2019-03-30T12:10:38.774Z,19.80
2019-03-30T12:13:07.353Z,19.90
2019-03-30T12:15:35.981Z,20.00
2019-03-30T12:18:04.725Z,20.20
2019-03-30T12:20:33.346Z,20.50
2019-03-30T12:23:01.984Z,20.50
2019-03-30T12:25:35.997Z,20.40
2019-03-30T12:28:00.778Z,20.30
2019-03-30T12:30:29.425Z,20.30
2019-03-30T12:32:58.020Z,20.30
2019-03-30T12:35:26.598Z,20.30
2019-03-30T12:37:55.147Z,20.40
2019-03-30T12:40:23.867Z,20.40
2019-03-30T12:42:52.452Z,20.20
2019-03-30T12:45:21.073Z,20.10
2019-03-30T12:47:49.652Z,20.20
2019-03-30T12:50:18.361Z,20.20
2019-03-30T12:52:47.234Z,20.30
2019-03-30T12:55:15.822Z,20.20
2019-03-30T12:57:44.423Z,20.50
2019-03-30T13:00:20.212Z,20.40
2019-03-30T13:02:48.901Z,20.40
2019-03-30T13:05:17.519Z,20.60
2019-03-30T13:07:46.075Z,20.70
2019-03-30T13:10:14.886Z,20.50
2019-03-30T13:12:43.511Z,20.30
2019-03-30T13:15:12.707Z,20.40
2019-03-30T13:17:41.268Z,20.50
2019-03-30T13:20:09.959Z,20.40
2019-03-30T13:22:38.515Z,20.50
2019-03-30T13:25:07.231Z,20.40
2019-03-30T13:27:35.843Z,20.20
2019-03-30T13:30:06.857Z,20.00
2019-03-30T13:32:35.427Z,20.00
2019-03-30T13:35:04.248Z,20.10
2019-03-30T13:37:32.862Z,20.20
2019-03-30T13:40:20.770Z,20.50
2019-03-30T13:42:48.535Z,20.60
2019-03-30T13:45:17.079Z,20.60
2019-03-30T13:47:45.683Z,20.30
2019-03-30T13:50:14.791Z,20.20
2019-03-30T13:52:43.340Z,20.20
2019-03-30T13:55:12.078Z,20.30
2019-03-30T13:57:40.598Z,20.40
2019-03-30T14:00:10.405Z,20.60
2019-03-30T14:02:38.931Z,20.70
2019-03-30T14:05:07.727Z,20.90
2019-03-30T14:07:36.224Z,20.80
2019-03-30T14:10:07.277Z,20.70
2019-03-30T14:12:35.833Z,20.50
2019-03-30T14:15:09.006Z,20.30
2019-03-30T14:17:38.963Z,20.20
2019-03-30T14:20:07.955Z,20.20
2019-03-30T14:22:37.163Z,20.00
2019-03-30T14:25:07.825Z,19.80
2019-03-30T14:27:36.737Z,19.60
2019-03-30T14:30:08.500Z,19.50
2019-03-30T14:32:37.067Z,19.30
2019-03-30T14:35:07.674Z,19.30
2019-03-30T14:37:37.167Z,19.30
2019-03-30T14:40:08.791Z,19.20
2019-03-30T14:42:37.789Z,19.30
2019-03-30T14:45:07.776Z,19.20
2019-03-30T14:47:36.755Z,19.10
2019-03-30T14:50:09.823Z,19.30
2019-03-30T14:52:38.462Z,19.40
2019-03-30T14:55:08.771Z,19.50
2019-03-30T14:57:37.452Z,19.50
2019-03-30T15:00:10.473Z,19.50
2019-03-30T15:02:39.190Z,19.30
2019-03-30T15:05:08.250Z,19.30
2019-03-30T15:07:37.000Z,19.30
2019-03-30T15:10:08.809Z,19.30
2019-03-30T15:12:38.178Z,19.20
2019-03-30T15:15:12.207Z,19.20
2019-03-30T15:17:42.291Z,19.40
2019-03-30T15:20:11.731Z,19.60
2019-03-30T15:22:59.663Z,19.90
2019-03-30T15:25:27.807Z,20.20
2019-03-30T15:27:56.674Z,20.30
2019-03-30T15:30:25.391Z,20.30
2019-03-30T15:32:54.011Z,20.20
2019-03-30T15:35:22.802Z,20.10
2019-03-30T15:37:51.487Z,19.90
2019-03-30T15:40:22.044Z,20.00
2019-03-30T15:42:50.764Z,19.90
2019-03-30T15:45:19.415Z,19.70
2019-03-30T15:47:48.682Z,19.70
2019-03-30T15:50:17.774Z,19.60
2019-03-30T15:52:46.588Z,19.50
2019-03-30T15:55:15.208Z,19.40
2019-03-30T15:57:43.971Z,19.20
2019-03-30T16:00:15.590Z,19.10
2019-03-30T16:02:44.227Z,19.10
2019-03-30T16:05:15.404Z,19.00
2019-03-30T16:07:43.570Z,19.00
2019-03-30T16:10:12.358Z,19.00
2019-03-30T16:12:41.067Z,18.90
2019-03-30T16:15:10.649Z,19.00
2019-03-30T16:17:39.259Z,18.90
2019-03-30T16:20:08.163Z,18.90
2019-03-30T16:22:36.789Z,18.90
2019-03-30T16:25:06.997Z,18.90
2019-03-30T16:27:39.045Z,18.90
2019-03-30T16:30:07.159Z,18.80
2019-03-30T16:32:35.759Z,18.70
2019-03-30T16:35:05.292Z,18.60
2019-03-30T16:37:33.933Z,18.50
2019-03-30T16:40:03.639Z,18.30
2019-03-30T16:42:32.267Z,18.30
2019-03-30T16:45:00.918Z,18.30
2019-03-30T16:47:29.587Z,18.20
2019-03-30T16:49:58.262Z,18.10
2019-03-30T16:52:27.332Z,18.00
2019-03-30T16:54:56.045Z,17.90
2019-03-30T16:57:24.920Z,17.90
2019-03-30T16:59:53.491Z,17.80
2019-03-30T17:02:22.205Z,17.70
2019-03-30T17:04:50.811Z,17.50
2019-03-30T17:07:19.689Z,17.40
2019-03-30T17:09:48.744Z,17.20
2019-03-30T17:12:17.362Z,17.10
2019-03-30T17:14:45.984Z,17.00
2019-03-30T17:17:14.817Z,16.80
2019-03-30T17:19:43.795Z,16.70
2019-03-30T17:22:12.492Z,16.50
2019-03-30T17:24:42.651Z,16.40
2019-03-30T17:27:11.584Z,16.30
2019-03-30T17:29:40.142Z,16.20
2019-03-30T17:32:08.694Z,16.10
2019-03-30T17:34:37.420Z,15.90
2019-03-30T17:37:06.109Z,15.90
2019-03-30T17:39:34.779Z,15.70
2019-03-30T17:42:03.545Z,15.60
2019-03-30T17:44:32.892Z,15.50
2019-03-30T17:47:01.465Z,15.50
2019-03-30T17:49:30.090Z,15.40
2019-03-30T17:51:58.807Z,15.30
2019-03-30T17:54:29.167Z,15.20
2019-03-30T17:56:57.872Z,15.20
2019-03-30T17:59:26.455Z,15.10
2019-03-30T18:01:55.084Z,15.00
2019-03-30T18:04:23.740Z,14.90
2019-03-30T18:06:52.363Z,14.90
2019-03-30T18:09:20.965Z,14.90
2019-03-30T18:11:49.614Z,14.70
2019-03-30T18:14:18.282Z,14.70
2019-03-30T18:16:46.965Z,14.60
2019-03-30T18:19:15.839Z,14.50
2019-03-30T18:21:44.582Z,14.40
2019-03-30T18:24:13.137Z,14.30
2019-03-30T18:26:41.739Z,14.20
2019-03-30T18:29:10.658Z,14.10
2019-03-30T18:31:40.366Z,14.00
2019-03-30T18:34:09.040Z,13.80
2019-03-30T18:36:38.934Z,13.70
2019-03-30T18:39:09.717Z,13.60
2019-03-30T18:41:38.045Z,13.60
2019-03-30T18:44:07.648Z,13.50
2019-03-30T18:46:37.643Z,13.40
2019-03-30T18:49:07.130Z,13.40
2019-03-30T18:51:38.749Z,13.30
2019-03-30T18:54:08.435Z,13.20
2019-03-30T18:56:39.942Z,13.10
2019-03-30T18:59:09.764Z,13.00
2019-03-30T19:01:40.039Z,12.90
2019-03-30T19:04:10.069Z,12.80
2019-03-30T19:06:39.073Z,12.80
2019-03-30T19:09:08.295Z,12.80
2019-03-30T19:11:38.679Z,12.80
2019-03-30T19:14:07.295Z,12.80
2019-03-30T19:16:37.586Z,12.80
2019-03-30T19:19:06.985Z,12.80
2019-03-30T19:21:35.592Z,12.70
2019-03-30T19:24:04.282Z,12.70
2019-03-30T19:26:33.436Z,12.60
2019-03-30T19:29:02.499Z,12.50
2019-03-30T19:31:32.333Z,12.40
2019-03-30T19:34:01.459Z,12.30
2019-03-30T19:36:30.416Z,12.20
2019-03-30T19:38:59.546Z,12.10
2019-03-30T19:41:28.799Z,12.00
2019-03-30T19:43:59.365Z,11.90
2019-03-30T19:46:28.994Z,11.80
2019-03-30T19:48:58.137Z,11.70
2019-03-30T19:51:27.094Z,11.60
2019-03-30T19:53:55.819Z,11.40
2019-03-30T19:56:25.020Z,11.40
2019-03-30T19:58:53.777Z,11.30
2019-03-30T20:01:41.790Z,11.20
2019-03-30T20:04:09.552Z,11.20
2019-03-30T20:06:39.944Z,11.10
2019-03-30T20:09:09.876Z,11.00
2019-03-30T20:11:38.470Z,11.00
2019-03-30T20:14:07.160Z,10.90
2019-03-30T20:16:37.445Z,10.80
2019-03-30T20:19:12.422Z,10.80
2019-03-30T20:21:36.674Z,10.70
2019-03-30T20:24:06.899Z,10.70
2019-03-30T20:26:35.747Z,10.50
2019-03-30T20:29:04.776Z,10.50
2019-03-30T20:31:33.827Z,10.40
2019-03-30T20:34:02.554Z,10.40
2019-03-30T20:36:35.081Z,10.30
2019-03-30T20:39:02.403Z,10.30
2019-03-30T20:41:31.237Z,10.20
2019-03-30T20:44:00.294Z,10.10
2019-03-30T20:46:29.208Z,10.20
2019-03-30T20:48:58.103Z,10.10
2019-03-30T20:51:28.264Z,10.00
2019-03-30T20:53:58.755Z,9.90
2019-03-30T20:56:29.364Z,9.90
2019-03-30T20:58:58.155Z,9.70
2019-03-30T21:01:27.013Z,9.70
2019-03-30T21:03:55.934Z,9.60
2019-03-30T21:06:26.272Z,9.50
2019-03-30T21:08:56.544Z,9.40
2019-03-30T21:11:25.242Z,9.30
2019-03-30T21:13:56.629Z,9.20
2019-03-30T21:16:24.515Z,9.20
2019-03-30T21:18:53.055Z,9.10
2019-03-30T21:21:21.699Z,9.00
2019-03-30T21:23:50.254Z,9.00
2019-03-30T21:26:19.392Z,8.90
2019-03-30T21:28:48.319Z,8.80
2019-03-30T21:31:17.518Z,8.70
2019-03-30T21:33:46.185Z,8.70
2019-03-30T21:36:14.920Z,8.60
2019-03-30T21:38:43.684Z,8.50
2019-03-30T21:41:12.255Z,8.50
2019-03-30T21:43:41.049Z,8.40
2019-03-30T21:46:10.000Z,8.30
2019-03-30T21:48:38.563Z,8.30
2019-03-30T21:51:07.185Z,8.20
2019-03-30T21:53:36.159Z,8.20
2019-03-30T21:56:04.889Z,8.10
2019-03-30T21:58:34.934Z,8.00
2019-03-30T22:01:03.854Z,8.00
2019-03-30T22:03:32.544Z,7.80
2019-03-30T22:06:03.059Z,7.80
2019-03-30T22:08:32.595Z,7.70
2019-03-30T22:11:01.263Z,7.70
2019-03-30T22:13:29.901Z,7.60
2019-03-30T22:15:58.944Z,7.50
2019-03-30T22:18:27.592Z,7.50
2019-03-30T22:20:56.159Z,7.50
2019-03-30T22:23:24.818Z,7.50
2019-03-30T22:25:53.984Z,7.40
2019-03-30T22:28:22.640Z,7.40
2019-03-30T22:30:51.377Z,7.40
2019-03-30T22:33:20.162Z,7.30
2019-03-30T22:35:48.835Z,7.30
2019-03-30T22:38:17.534Z,7.30
2019-03-30T22:40:46.224Z,7.30
2019-03-30T22:43:14.918Z,7.30
2019-03-30T22:45:43.451Z,7.30
2019-03-30T22:48:12.121Z,7.20
2019-03-30T22:50:40.804Z,7.10
2019-03-30T22:53:09.488Z,7.10
2019-03-30T22:55:38.254Z,7.10
2019-03-30T22:58:06.877Z,7.00
2019-03-30T23:03:17.471Z,6.90
2019-03-30T23:05:46.108Z,6.80
2019-03-30T23:08:14.729Z,6.80
2019-03-30T23:10:44.732Z,6.70
2019-03-30T23:13:13.464Z,6.70
2019-03-30T23:15:42.075Z,6.60
2019-03-30T23:18:10.702Z,6.60
2019-03-30T23:20:39.281Z,6.60
2019-03-30T23:23:07.821Z,6.50
2019-03-30T23:25:36.611Z,6.50
2019-03-30T23:28:05.395Z,6.40
2019-03-30T23:30:34.048Z,6.40
2019-03-30T23:33:02.577Z,6.30
2019-03-30T23:35:31.260Z,6.30
2019-03-30T23:37:59.904Z,6.20
2019-03-30T23:40:28.870Z,6.20
2019-03-30T23:42:57.497Z,6.10
2019-03-30T23:45:26.215Z,6.10
2019-03-30T23:47:54.904Z,6.00
2019-03-30T23:50:23.540Z,6.00
2019-03-30T23:52:52.154Z,5.90
2019-03-30T23:55:40.187Z,5.90
2019-03-30T23:58:08.022Z,5.90
